sensor_id;sensor_type;location;lat;lon;timestamp;temperature;humidity
22418;DHT22;11376;50.932;4.442;2022-12-10T00:01:22;0.40;99.90
22418;DHT22;11376;50.932;4.442;2022-12-10T00:03:48;0.30;99.90
22418;DHT22;11376;50.932;4.442;2022-12-10T00:06:20;0.20;99.90
22418;DHT22;11376;50.932;4.442;2022-12-10T00:08:47;0.50;99.90
22418;DHT22;11376;50.932;4.442;2022-12-10T00:11:15;0.90;99.90
22418;DHT22;11376;50.932;4.442;2022-12-10T00:13:41;0.90;99.90
22418;DHT22;11376;50.932;4.442;2022-12-10T00:16:10;1.00;99.90
22418;DHT22;11376;50.932;4.442;2022-12-10T00:18:36;1.00;99.90
22418;DHT22;11376;50.932;4.442;2022-12-10T00:21:06;1.10;99.90
22418;DHT22;11376;50.932;4.442;2022-12-10T00:23:33;1.30;99.90
22418;DHT22;11376;50.932;4.442;2022-12-10T00:28:28;1.00;99.90
22418;DHT22;11376;50.932;4.442;2022-12-10T00:30:54;0.80;99.90
22418;DHT22;11376;50.932;4.442;2022-12-10T00:33:19;1.00;99.90
22418;DHT22;11376;50.932;4.442;2022-12-10T00:35:45;1.00;99.90
22418;DHT22;11376;50.932;4.442;2022-12-10T00:38:11;0.70;99.90
22418;DHT22;11376;50.932;4.442;2022-12-10T00:40:36;0.40;99.90
22418;DHT22;11376;50.932;4.442;2022-12-10T00:43:02;0.40;99.90
22418;DHT22;11376;50.932;4.442;2022-12-10T00:45:28;0.50;99.90
22418;DHT22;11376;50.932;4.442;2022-12-10T00:47:53;0.50;99.90
22418;DHT22;11376;50.932;4.442;2022-12-10T00:50:19;0.30;99.90
22418;DHT22;11376;50.932;4.442;2022-12-10T00:52:44;0.20;99.90
22418;DHT22;11376;50.932;4.442;2022-12-10T00:55:10;0.10;99.90
22418;DHT22;11376;50.932;4.442;2022-12-10T00:57:35;0.10;99.90
22418;DHT22;11376;50.932;4.442;2022-12-10T01:00:01;0.10;99.90
22418;DHT22;11376;50.932;4.442;2022-12-10T01:02:27;0.30;99.90
22418;DHT22;11376;50.932;4.442;2022-12-10T01:04:53;0.20;99.90
22418;DHT22;11376;50.932;4.442;2022-12-10T01:07:19;0.20;99.90
22418;DHT22;11376;50.932;4.442;2022-12-10T01:09:44;0.20;99.90
22418;DHT22;11376;50.932;4.442;2022-12-10T01:12:10;0.20;99.90
22418;DHT22;11376;50.932;4.442;2022-12-10T01:14:36;0.20;99.90
22418;DHT22;11376;50.932;4.442;2022-12-10T01:17:03;0.10;99.90
22418;DHT22;11376;50.932;4.442;2022-12-10T01:19:29;0.10;99.90
22418;DHT22;11376;50.932;4.442;2022-12-10T01:21:56;0.10;99.90
22418;DHT22;11376;50.932;4.442;2022-12-10T01:24:24;0.20;99.90
22418;DHT22;11376;50.932;4.442;2022-12-10T01:26:50;0.20;99.90
22418;DHT22;11376;50.932;4.442;2022-12-10T01:29:16;0.20;99.90
22418;DHT22;11376;50.932;4.442;2022-12-10T01:31:42;0.20;99.90
22418;DHT22;11376;50.932;4.442;2022-12-10T01:34:12;0.20;99.90
22418;DHT22;11376;50.932;4.442;2022-12-10T01:36:43;0.20;99.90
22418;DHT22;11376;50.932;4.442;2022-12-10T01:39:12;0.20;99.90
22418;DHT22;11376;50.932;4.442;2022-12-10T01:41:41;0.20;99.90
22418;DHT22;11376;50.932;4.442;2022-12-10T01:46:41;0.30;99.90
22418;DHT22;11376;50.932;4.442;2022-12-10T01:49:12;0.20;99.90
22418;DHT22;11376;50.932;4.442;2022-12-10T01:51:41;0.40;99.90
22418;DHT22;11376;50.932;4.442;2022-12-10T01:54:11;0.30;99.90
22418;DHT22;11376;50.932;4.442;2022-12-10T01:56:40;0.30;99.90
22418;DHT22;11376;50.932;4.442;2022-12-10T01:59:06;0.20;99.90
22418;DHT22;11376;50.932;4.442;2022-12-10T02:06:56;0.10;99.90
22418;DHT22;11376;50.932;4.442;2022-12-10T02:09:49;0.20;99.90
22418;DHT22;11376;50.932;4.442;2022-12-10T02:12:49;0.30;99.90
22418;DHT22;11376;50.932;4.442;2022-12-10T02:15:30;0.30;99.90
22418;DHT22;11376;50.932;4.442;2022-12-10T02:18:06;0.40;99.90
22418;DHT22;11376;50.932;4.442;2022-12-10T02:20:40;0.30;99.90
22418;DHT22;11376;50.932;4.442;2022-12-10T02:23:16;0.30;99.90
22418;DHT22;11376;50.932;4.442;2022-12-10T02:25:51;0.20;99.90
22418;DHT22;11376;50.932;4.442;2022-12-10T02:30:57;0.10;99.90
22418;DHT22;11376;50.932;4.442;2022-12-10T02:33:24;0.10;99.90
22418;DHT22;11376;50.932;4.442;2022-12-10T02:35:53;0.00;99.90
22418;DHT22;11376;50.932;4.442;2022-12-10T02:38:27;0.20;99.90
22418;DHT22;11376;50.932;4.442;2022-12-10T02:40:58;0.30;99.90
22418;DHT22;11376;50.932;4.442;2022-12-10T02:43:27;0.50;99.90
22418;DHT22;11376;50.932;4.442;2022-12-10T02:45:55;0.70;99.90
22418;DHT22;11376;50.932;4.442;2022-12-10T02:48:22;0.60;99.90
22418;DHT22;11376;50.932;4.442;2022-12-10T02:50:47;0.30;99.90
22418;DHT22;11376;50.932;4.442;2022-12-10T02:53:13;0.20;99.90
22418;DHT22;11376;50.932;4.442;2022-12-10T02:58:54;0.10;99.90
22418;DHT22;11376;50.932;4.442;2022-12-10T03:01:41;0.00;99.90
22418;DHT22;11376;50.932;4.442;2022-12-10T03:04:16;0.00;99.90
22418;DHT22;11376;50.932;4.442;2022-12-10T03:06:52;0.00;99.90
22418;DHT22;11376;50.932;4.442;2022-12-10T03:09:23;0.30;99.90
22418;DHT22;11376;50.932;4.442;2022-12-10T03:11:58;0.20;99.90
22418;DHT22;11376;50.932;4.442;2022-12-10T03:14:28;0.00;99.90
22418;DHT22;11376;50.932;4.442;2022-12-10T03:16:56;0.10;99.90
22418;DHT22;11376;50.932;4.442;2022-12-10T03:19:33;0.10;99.90
22418;DHT22;11376;50.932;4.442;2022-12-10T03:22:02;0.10;99.90
22418;DHT22;11376;50.932;4.442;2022-12-10T03:24:30;0.00;99.90
22418;DHT22;11376;50.932;4.442;2022-12-10T03:26:57;0.00;99.90
22418;DHT22;11376;50.932;4.442;2022-12-10T03:29:31;-0.10;99.90
22418;DHT22;11376;50.932;4.442;2022-12-10T03:31:59;0.10;99.90
22418;DHT22;11376;50.932;4.442;2022-12-10T03:34:25;0.10;99.90
22418;DHT22;11376;50.932;4.442;2022-12-10T03:36:51;-0.10;99.90
22418;DHT22;11376;50.932;4.442;2022-12-10T03:39:18;-0.10;99.90
22418;DHT22;11376;50.932;4.442;2022-12-10T03:41:43;-0.20;99.90
22418;DHT22;11376;50.932;4.442;2022-12-10T03:44:09;-0.10;99.90
22418;DHT22;11376;50.932;4.442;2022-12-10T03:46:35;-0.10;99.90
22418;DHT22;11376;50.932;4.442;2022-12-10T03:49:03;-0.10;99.90
22418;DHT22;11376;50.932;4.442;2022-12-10T03:51:29;-0.10;99.90
22418;DHT22;11376;50.932;4.442;2022-12-10T03:53:54;-0.10;99.90
22418;DHT22;11376;50.932;4.442;2022-12-10T03:56:21;-0.10;99.90
22418;DHT22;11376;50.932;4.442;2022-12-10T03:58:47;-0.20;99.90
22418;DHT22;11376;50.932;4.442;2022-12-10T04:01:13;-0.10;99.90
22418;DHT22;11376;50.932;4.442;2022-12-10T04:03:40;-0.10;99.90
22418;DHT22;11376;50.932;4.442;2022-12-10T04:06:09;-0.10;99.90
22418;DHT22;11376;50.932;4.442;2022-12-10T04:08:35;-0.30;99.90
22418;DHT22;11376;50.932;4.442;2022-12-10T04:11:04;-0.30;99.90
22418;DHT22;11376;50.932;4.442;2022-12-10T04:13:32;-0.30;99.90
22418;DHT22;11376;50.932;4.442;2022-12-10T04:16:16;-0.20;99.90
22418;DHT22;11376;50.932;4.442;2022-12-10T04:19:09;-0.10;99.90
22418;DHT22;11376;50.932;4.442;2022-12-10T04:21:36;0.00;99.90
22418;DHT22;11376;50.932;4.442;2022-12-10T04:24:24;0.00;99.90
22418;DHT22;11376;50.932;4.442;2022-12-10T04:27:25;-0.20;99.90
22418;DHT22;11376;50.932;4.442;2022-12-10T04:29:52;-0.30;99.90
22418;DHT22;11376;50.932;4.442;2022-12-10T04:32:18;-0.20;99.90
22418;DHT22;11376;50.932;4.442;2022-12-10T04:34:44;-0.20;99.90
22418;DHT22;11376;50.932;4.442;2022-12-10T04:37:10;-0.10;99.90
22418;DHT22;11376;50.932;4.442;2022-12-10T04:39:39;0.00;99.90
22418;DHT22;11376;50.932;4.442;2022-12-10T04:42:06;-0.10;99.90
22418;DHT22;11376;50.932;4.442;2022-12-10T04:44:32;-0.10;99.90
22418;DHT22;11376;50.932;4.442;2022-12-10T04:46:58;-0.10;99.90
22418;DHT22;11376;50.932;4.442;2022-12-10T04:49:24;-0.20;99.90
22418;DHT22;11376;50.932;4.442;2022-12-10T04:51:50;-0.20;99.90
22418;DHT22;11376;50.932;4.442;2022-12-10T04:54:17;-0.20;99.90
22418;DHT22;11376;50.932;4.442;2022-12-10T04:56:43;-0.30;99.90
22418;DHT22;11376;50.932;4.442;2022-12-10T04:59:09;-0.30;99.90
22418;DHT22;11376;50.932;4.442;2022-12-10T05:01:35;-0.30;99.90
22418;DHT22;11376;50.932;4.442;2022-12-10T05:04:03;-0.20;99.90
22418;DHT22;11376;50.932;4.442;2022-12-10T05:06:29;-0.20;99.90
22418;DHT22;11376;50.932;4.442;2022-12-10T05:08:55;-0.10;99.90
22418;DHT22;11376;50.932;4.442;2022-12-10T05:11:22;-0.10;99.90
22418;DHT22;11376;50.932;4.442;2022-12-10T05:13:48;-0.20;99.90
22418;DHT22;11376;50.932;4.442;2022-12-10T05:16:16;-0.30;99.90
22418;DHT22;11376;50.932;4.442;2022-12-10T05:18:42;-0.30;99.90
22418;DHT22;11376;50.932;4.442;2022-12-10T05:21:14;-0.20;99.90
22418;DHT22;11376;50.932;4.442;2022-12-10T05:23:42;-0.20;99.90
22418;DHT22;11376;50.932;4.442;2022-12-10T05:28:38;-0.30;99.90
22418;DHT22;11376;50.932;4.442;2022-12-10T05:31:04;-0.30;99.90
22418;DHT22;11376;50.932;4.442;2022-12-10T05:33:31;-0.30;99.90
22418;DHT22;11376;50.932;4.442;2022-12-10T05:36:02;-0.30;99.90
22418;DHT22;11376;50.932;4.442;2022-12-10T05:38:30;-0.40;99.90
22418;DHT22;11376;50.932;4.442;2022-12-10T05:41:04;-0.40;99.90
22418;DHT22;11376;50.932;4.442;2022-12-10T05:43:30;-0.40;99.90
22418;DHT22;11376;50.932;4.442;2022-12-10T05:46:00;-0.40;99.90
22418;DHT22;11376;50.932;4.442;2022-12-10T05:48:26;-0.50;99.90
22418;DHT22;11376;50.932;4.442;2022-12-10T05:50:52;-0.50;99.90
22418;DHT22;11376;50.932;4.442;2022-12-10T05:53:18;-0.40;99.90
22418;DHT22;11376;50.932;4.442;2022-12-10T05:55:44;-0.30;99.90
22418;DHT22;11376;50.932;4.442;2022-12-10T05:58:10;-0.40;99.90
22418;DHT22;11376;50.932;4.442;2022-12-10T06:00:39;-0.40;99.90
22418;DHT22;11376;50.932;4.442;2022-12-10T06:03:04;-0.50;99.90
22418;DHT22;11376;50.932;4.442;2022-12-10T06:05:39;-0.60;99.90
22418;DHT22;11376;50.932;4.442;2022-12-10T06:08:06;-0.60;99.90
22418;DHT22;11376;50.932;4.442;2022-12-10T06:10:34;-0.70;99.90
22418;DHT22;11376;50.932;4.442;2022-12-10T06:13:00;-0.60;99.90
22418;DHT22;11376;50.932;4.442;2022-12-10T06:15:26;-0.60;99.90
22418;DHT22;11376;50.932;4.442;2022-12-10T06:17:51;-0.60;99.90
22418;DHT22;11376;50.932;4.442;2022-12-10T06:20:19;-0.50;99.90
22418;DHT22;11376;50.932;4.442;2022-12-10T06:22:44;-0.40;99.90
22418;DHT22;11376;50.932;4.442;2022-12-10T06:25:10;-0.40;99.90
22418;DHT22;11376;50.932;4.442;2022-12-10T06:27:35;-0.50;99.90
22418;DHT22;11376;50.932;4.442;2022-12-10T06:30:01;-0.50;99.90
22418;DHT22;11376;50.932;4.442;2022-12-10T06:32:27;-0.60;99.90
22418;DHT22;11376;50.932;4.442;2022-12-10T06:34:53;-0.70;99.90
22418;DHT22;11376;50.932;4.442;2022-12-10T06:37:18;-0.70;99.90
22418;DHT22;11376;50.932;4.442;2022-12-10T06:39:44;-0.70;99.90
22418;DHT22;11376;50.932;4.442;2022-12-10T06:42:09;-0.60;99.90
22418;DHT22;11376;50.932;4.442;2022-12-10T06:44:35;-0.60;99.90
22418;DHT22;11376;50.932;4.442;2022-12-10T06:47:01;-0.60;99.90
22418;DHT22;11376;50.932;4.442;2022-12-10T06:49:26;-0.60;99.90
22418;DHT22;11376;50.932;4.442;2022-12-10T06:51:52;-0.60;99.90
22418;DHT22;11376;50.932;4.442;2022-12-10T06:54:17;-0.50;99.90
22418;DHT22;11376;50.932;4.442;2022-12-10T06:56:43;-0.60;99.90
22418;DHT22;11376;50.932;4.442;2022-12-10T06:59:08;-0.50;99.90
22418;DHT22;11376;50.932;4.442;2022-12-10T07:01:34;-0.50;99.90
22418;DHT22;11376;50.932;4.442;2022-12-10T07:04:00;-0.50;99.90
22418;DHT22;11376;50.932;4.442;2022-12-10T07:06:26;-0.60;99.90
22418;DHT22;11376;50.932;4.442;2022-12-10T07:08:53;-0.50;99.90
22418;DHT22;11376;50.932;4.442;2022-12-10T07:11:21;-0.50;99.90
22418;DHT22;11376;50.932;4.442;2022-12-10T07:13:46;-0.60;99.90
22418;DHT22;11376;50.932;4.442;2022-12-10T07:16:31;-0.70;99.90
22418;DHT22;11376;50.932;4.442;2022-12-10T07:18:59;-0.70;99.90
22418;DHT22;11376;50.932;4.442;2022-12-10T07:21:27;-0.70;99.90
22418;DHT22;11376;50.932;4.442;2022-12-10T07:23:55;-0.60;99.90
22418;DHT22;11376;50.932;4.442;2022-12-10T07:26:24;-0.70;99.90
22418;DHT22;11376;50.932;4.442;2022-12-10T07:28:52;-0.60;99.90
22418;DHT22;11376;50.932;4.442;2022-12-10T07:31:18;-0.60;99.90
22418;DHT22;11376;50.932;4.442;2022-12-10T07:33:44;-0.60;99.90
22418;DHT22;11376;50.932;4.442;2022-12-10T07:36:11;-0.60;99.90
22418;DHT22;11376;50.932;4.442;2022-12-10T07:38:37;-0.60;99.90
22418;DHT22;11376;50.932;4.442;2022-12-10T07:41:05;-0.70;99.90
22418;DHT22;11376;50.932;4.442;2022-12-10T07:43:34;-0.60;99.90
22418;DHT22;11376;50.932;4.442;2022-12-10T07:46:07;-0.60;99.90
22418;DHT22;11376;50.932;4.442;2022-12-10T07:48:33;-0.80;99.90
22418;DHT22;11376;50.932;4.442;2022-12-10T07:50:59;-0.80;99.90
22418;DHT22;11376;50.932;4.442;2022-12-10T07:53:25;-0.70;99.90
22418;DHT22;11376;50.932;4.442;2022-12-10T07:55:51;-0.90;99.90
22418;DHT22;11376;50.932;4.442;2022-12-10T07:58:16;-0.80;99.90
22418;DHT22;11376;50.932;4.442;2022-12-10T08:00:42;-0.70;99.90
22418;DHT22;11376;50.932;4.442;2022-12-10T08:03:07;-0.60;99.90
22418;DHT22;11376;50.932;4.442;2022-12-10T08:05:33;-0.40;99.90
22418;DHT22;11376;50.932;4.442;2022-12-10T08:08:01;-0.50;99.90
22418;DHT22;11376;50.932;4.442;2022-12-10T08:10:27;-0.50;99.90
22418;DHT22;11376;50.932;4.442;2022-12-10T08:12:53;-0.70;99.90
22418;DHT22;11376;50.932;4.442;2022-12-10T08:15:18;-0.80;99.90
22418;DHT22;11376;50.932;4.442;2022-12-10T08:17:44;-0.80;99.90
22418;DHT22;11376;50.932;4.442;2022-12-10T08:20:10;-0.80;99.90
22418;DHT22;11376;50.932;4.442;2022-12-10T08:22:36;-0.80;99.90
22418;DHT22;11376;50.932;4.442;2022-12-10T08:25:01;-0.80;99.90
22418;DHT22;11376;50.932;4.442;2022-12-10T08:27:27;-0.80;99.90
22418;DHT22;11376;50.932;4.442;2022-12-10T08:29:53;-0.80;99.90
22418;DHT22;11376;50.932;4.442;2022-12-10T08:32:18;-0.80;99.90
22418;DHT22;11376;50.932;4.442;2022-12-10T08:34:44;-0.80;99.90
22418;DHT22;11376;50.932;4.442;2022-12-10T08:37:10;-0.70;99.90
22418;DHT22;11376;50.932;4.442;2022-12-10T08:39:35;-0.70;99.90
22418;DHT22;11376;50.932;4.442;2022-12-10T08:42:01;-0.60;99.90
22418;DHT22;11376;50.932;4.442;2022-12-10T08:44:27;-0.60;99.90
22418;DHT22;11376;50.932;4.442;2022-12-10T08:46:52;-0.50;99.90
22418;DHT22;11376;50.932;4.442;2022-12-10T08:49:18;-0.40;99.90
22418;DHT22;11376;50.932;4.442;2022-12-10T08:51:44;-0.40;99.90
22418;DHT22;11376;50.932;4.442;2022-12-10T08:54:09;-0.30;99.90
22418;DHT22;11376;50.932;4.442;2022-12-10T08:56:35;-0.30;99.90
22418;DHT22;11376;50.932;4.442;2022-12-10T08:59:00;-0.40;99.90
22418;DHT22;11376;50.932;4.442;2022-12-10T09:01:26;-0.50;99.90
22418;DHT22;11376;50.932;4.442;2022-12-10T09:03:52;-0.50;99.90
22418;DHT22;11376;50.932;4.442;2022-12-10T09:06:20;-0.50;99.90
22418;DHT22;11376;50.932;4.442;2022-12-10T09:08:46;-0.50;99.90
22418;DHT22;11376;50.932;4.442;2022-12-10T09:11:13;-0.60;99.90
22418;DHT22;11376;50.932;4.442;2022-12-10T09:13:40;-0.50;99.90
22418;DHT22;11376;50.932;4.442;2022-12-10T09:16:05;-0.60;99.90
22418;DHT22;11376;50.932;4.442;2022-12-10T09:18:31;-0.50;99.90
22418;DHT22;11376;50.932;4.442;2022-12-10T09:20:57;-0.60;99.90
22418;DHT22;11376;50.932;4.442;2022-12-10T09:23:22;-0.70;99.90
22418;DHT22;11376;50.932;4.442;2022-12-10T09:25:48;-0.60;99.90
22418;DHT22;11376;50.932;4.442;2022-12-10T09:28:14;-0.40;99.90
22418;DHT22;11376;50.932;4.442;2022-12-10T09:30:39;-0.50;99.90
22418;DHT22;11376;50.932;4.442;2022-12-10T09:33:05;-0.60;99.90
22418;DHT22;11376;50.932;4.442;2022-12-10T09:35:31;-0.60;99.90
22418;DHT22;11376;50.932;4.442;2022-12-10T09:37:56;-0.70;99.90
22418;DHT22;11376;50.932;4.442;2022-12-10T09:40:45;-0.60;99.90
22418;DHT22;11376;50.932;4.442;2022-12-10T09:51:37;-0.50;99.90
22418;DHT22;11376;50.932;4.442;2022-12-10T09:54:16;-0.40;99.90
22418;DHT22;11376;50.932;4.442;2022-12-10T09:56:44;-0.30;99.90
22418;DHT22;11376;50.932;4.442;2022-12-10T09:59:23;-0.30;99.90
22418;DHT22;11376;50.932;4.442;2022-12-10T10:02:16;-0.20;99.90
22418;DHT22;11376;50.932;4.442;2022-12-10T10:04:44;-0.10;99.90
22418;DHT22;11376;50.932;4.442;2022-12-10T10:07:25;-0.10;99.90
22418;DHT22;11376;50.932;4.442;2022-12-10T10:09:56;0.10;99.90
22418;DHT22;11376;50.932;4.442;2022-12-10T10:12:23;0.20;99.90
22418;DHT22;11376;50.932;4.442;2022-12-10T10:14:49;0.20;99.90
22418;DHT22;11376;50.932;4.442;2022-12-10T10:17:21;0.20;99.90
22418;DHT22;11376;50.932;4.442;2022-12-10T10:19:48;0.10;99.90
22418;DHT22;11376;50.932;4.442;2022-12-10T10:22:15;0.10;99.90
22418;DHT22;11376;50.932;4.442;2022-12-10T10:24:43;0.00;99.90
22418;DHT22;11376;50.932;4.442;2022-12-10T10:27:19;0.00;99.90
22418;DHT22;11376;50.932;4.442;2022-12-10T10:29:48;0.00;99.90
22418;DHT22;11376;50.932;4.442;2022-12-10T10:32:17;0.10;99.90
22418;DHT22;11376;50.932;4.442;2022-12-10T10:34:44;0.20;99.90
22418;DHT22;11376;50.932;4.442;2022-12-10T10:37:21;0.20;99.90
22418;DHT22;11376;50.932;4.442;2022-12-10T10:39:48;0.30;99.90
22418;DHT22;11376;50.932;4.442;2022-12-10T10:44:50;0.30;99.90
22418;DHT22;11376;50.932;4.442;2022-12-10T10:47:30;0.30;99.90
22418;DHT22;11376;50.932;4.442;2022-12-10T10:49:56;0.30;99.90
22418;DHT22;11376;50.932;4.442;2022-12-10T10:52:32;0.30;99.90
22418;DHT22;11376;50.932;4.442;2022-12-10T10:55:00;0.30;99.90
22418;DHT22;11376;50.932;4.442;2022-12-10T10:57:32;0.20;99.90
22418;DHT22;11376;50.932;4.442;2022-12-10T11:00:20;0.00;99.90
22418;DHT22;11376;50.932;4.442;2022-12-10T11:02:47;0.10;99.90
22418;DHT22;11376;50.932;4.442;2022-12-10T11:05:29;0.10;99.90
22418;DHT22;11376;50.932;4.442;2022-12-10T11:08:04;0.10;99.90
22418;DHT22;11376;50.932;4.442;2022-12-10T11:10:31;0.20;99.90
22418;DHT22;11376;50.932;4.442;2022-12-10T11:15:38;0.30;99.90
22418;DHT22;11376;50.932;4.442;2022-12-10T11:18:34;0.60;99.90
22418;DHT22;11376;50.932;4.442;2022-12-10T11:23:41;0.50;99.90
22418;DHT22;11376;50.932;4.442;2022-12-10T11:26:39;0.40;99.90
22418;DHT22;11376;50.932;4.442;2022-12-10T11:29:42;0.30;99.90
22418;DHT22;11376;50.932;4.442;2022-12-10T11:46:12;0.80;99.90
22418;DHT22;11376;50.932;4.442;2022-12-10T11:48:52;0.80;99.90
22418;DHT22;11376;50.932;4.442;2022-12-10T11:54:34;0.70;99.90
22418;DHT22;11376;50.932;4.442;2022-12-10T12:00:00;0.60;99.90
22418;DHT22;11376;50.932;4.442;2022-12-10T12:13:36;0.80;99.90
22418;DHT22;11376;50.932;4.442;2022-12-10T12:16:13;0.80;99.90
22418;DHT22;11376;50.932;4.442;2022-12-10T12:21:11;1.00;99.90
22418;DHT22;11376;50.932;4.442;2022-12-10T12:26:27;1.00;99.90
22418;DHT22;11376;50.932;4.442;2022-12-10T12:29:06;1.10;99.90
22418;DHT22;11376;50.932;4.442;2022-12-10T12:31:39;1.20;99.90
22418;DHT22;11376;50.932;4.442;2022-12-10T12:34:36;1.10;99.90
22418;DHT22;11376;50.932;4.442;2022-12-10T12:37:00;1.00;99.90
22418;DHT22;11376;50.932;4.442;2022-12-10T12:39:32;1.10;99.90
22418;DHT22;11376;50.932;4.442;2022-12-10T12:42:01;1.20;99.90
22418;DHT22;11376;50.932;4.442;2022-12-10T12:44:59;1.10;99.90
22418;DHT22;11376;50.932;4.442;2022-12-10T12:52:50;1.10;99.90
22418;DHT22;11376;50.932;4.442;2022-12-10T12:55:22;1.30;99.90
22418;DHT22;11376;50.932;4.442;2022-12-10T13:00:47;1.40;99.90
22418;DHT22;11376;50.932;4.442;2022-12-10T13:03:42;1.30;99.90
22418;DHT22;11376;50.932;4.442;2022-12-10T13:06:32;1.40;99.90
22418;DHT22;11376;50.932;4.442;2022-12-10T13:11:40;1.60;99.90
22418;DHT22;11376;50.932;4.442;2022-12-10T13:37:36;1.40;99.90
22418;DHT22;11376;50.932;4.442;2022-12-10T13:42:37;1.40;99.90
22418;DHT22;11376;50.932;4.442;2022-12-10T13:45:34;1.40;99.90
22418;DHT22;11376;50.932;4.442;2022-12-10T13:48:23;1.50;99.90
22418;DHT22;11376;50.932;4.442;2022-12-10T13:53:49;1.50;99.90
22418;DHT22;11376;50.932;4.442;2022-12-10T13:56:30;1.50;99.90
22418;DHT22;11376;50.932;4.442;2022-12-10T14:02:18;1.50;99.90
22418;DHT22;11376;50.932;4.442;2022-12-10T14:07:18;1.60;99.90
22418;DHT22;11376;50.932;4.442;2022-12-10T14:09:55;1.50;99.90
22418;DHT22;11376;50.932;4.442;2022-12-10T14:12:35;1.40;99.90
22418;DHT22;11376;50.932;4.442;2022-12-10T14:15:08;1.60;99.90
22418;DHT22;11376;50.932;4.442;2022-12-10T14:17:42;1.50;99.90
22418;DHT22;11376;50.932;4.442;2022-12-10T14:20:14;1.50;99.90
22418;DHT22;11376;50.932;4.442;2022-12-10T14:22:47;1.50;99.90
22418;DHT22;11376;50.932;4.442;2022-12-10T14:25:15;1.50;99.90
22418;DHT22;11376;50.932;4.442;2022-12-10T14:27:44;1.60;99.90
22418;DHT22;11376;50.932;4.442;2022-12-10T14:30:16;1.60;99.90
22418;DHT22;11376;50.932;4.442;2022-12-10T14:32:42;1.60;99.90
22418;DHT22;11376;50.932;4.442;2022-12-10T14:35:24;1.60;99.90
22418;DHT22;11376;50.932;4.442;2022-12-10T14:37:50;1.60;99.90
22418;DHT22;11376;50.932;4.442;2022-12-10T14:40:30;1.60;99.90
22418;DHT22;11376;50.932;4.442;2022-12-10T14:43:06;1.50;99.90
22418;DHT22;11376;50.932;4.442;2022-12-10T14:48:11;1.50;99.90
22418;DHT22;11376;50.932;4.442;2022-12-10T14:50:37;1.40;99.90
22418;DHT22;11376;50.932;4.442;2022-12-10T14:53:08;1.40;99.90
22418;DHT22;11376;50.932;4.442;2022-12-10T14:55:37;1.40;99.90
22418;DHT22;11376;50.932;4.442;2022-12-10T14:58:04;1.50;99.90
22418;DHT22;11376;50.932;4.442;2022-12-10T15:00:31;1.50;99.90
22418;DHT22;11376;50.932;4.442;2022-12-10T15:02:59;1.50;99.90
22418;DHT22;11376;50.932;4.442;2022-12-10T15:05:30;1.50;99.90
22418;DHT22;11376;50.932;4.442;2022-12-10T15:08:06;1.50;99.90
22418;DHT22;11376;50.932;4.442;2022-12-10T15:10:40;1.50;99.90
22418;DHT22;11376;50.932;4.442;2022-12-10T15:13:14;1.50;99.90
22418;DHT22;11376;50.932;4.442;2022-12-10T15:15:47;1.60;99.90
22418;DHT22;11376;50.932;4.442;2022-12-10T15:18:18;1.60;99.90
22418;DHT22;11376;50.932;4.442;2022-12-10T15:28:28;1.50;99.90
22418;DHT22;11376;50.932;4.442;2022-12-10T15:33:50;1.60;99.90
22418;DHT22;11376;50.932;4.442;2022-12-10T15:41:45;1.60;99.90
22418;DHT22;11376;50.932;4.442;2022-12-10T15:49:23;1.60;99.90
22418;DHT22;11376;50.932;4.442;2022-12-10T15:51:49;1.60;99.90
22418;DHT22;11376;50.932;4.442;2022-12-10T15:54:34;1.60;99.90
22418;DHT22;11376;50.932;4.442;2022-12-10T15:57:28;1.70;99.90
22418;DHT22;11376;50.932;4.442;2022-12-10T15:59:58;1.70;99.90
22418;DHT22;11376;50.932;4.442;2022-12-10T16:07:44;1.80;99.90
22418;DHT22;11376;50.932;4.442;2022-12-10T16:10:11;1.80;99.90
22418;DHT22;11376;50.932;4.442;2022-12-10T16:12:38;1.70;99.90
22418;DHT22;11376;50.932;4.442;2022-12-10T16:15:06;1.70;99.90
22418;DHT22;11376;50.932;4.442;2022-12-10T16:17:32;1.70;99.90
22418;DHT22;11376;50.932;4.442;2022-12-10T16:20:18;1.80;99.90
22418;DHT22;11376;50.932;4.442;2022-12-10T16:22:45;1.80;99.90
22418;DHT22;11376;50.932;4.442;2022-12-10T16:25:11;1.70;99.90
22418;DHT22;11376;50.932;4.442;2022-12-10T16:27:38;1.70;99.90
22418;DHT22;11376;50.932;4.442;2022-12-10T16:30:21;1.70;99.90
22418;DHT22;11376;50.932;4.442;2022-12-10T16:32:47;1.70;99.90
22418;DHT22;11376;50.932;4.442;2022-12-10T16:35:13;1.70;99.90
22418;DHT22;11376;50.932;4.442;2022-12-10T16:37:49;1.70;99.90
22418;DHT22;11376;50.932;4.442;2022-12-10T16:40:17;1.70;99.90
22418;DHT22;11376;50.932;4.442;2022-12-10T16:42:43;1.70;99.90
22418;DHT22;11376;50.932;4.442;2022-12-10T16:45:15;1.60;99.90
22418;DHT22;11376;50.932;4.442;2022-12-10T16:47:42;1.70;99.90
22418;DHT22;11376;50.932;4.442;2022-12-10T16:50:08;1.60;99.90
22418;DHT22;11376;50.932;4.442;2022-12-10T16:52:34;1.60;99.90
22418;DHT22;11376;50.932;4.442;2022-12-10T16:54:59;1.60;99.90
22418;DHT22;11376;50.932;4.442;2022-12-10T16:57:26;1.50;99.90
22418;DHT22;11376;50.932;4.442;2022-12-10T16:59:51;1.60;99.90
22418;DHT22;11376;50.932;4.442;2022-12-10T17:02:18;1.60;99.90
22418;DHT22;11376;50.932;4.442;2022-12-10T17:04:44;1.60;99.90
22418;DHT22;11376;50.932;4.442;2022-12-10T17:07:10;1.60;99.90
22418;DHT22;11376;50.932;4.442;2022-12-10T17:09:36;1.60;99.90
22418;DHT22;11376;50.932;4.442;2022-12-10T17:12:02;1.50;99.90
22418;DHT22;11376;50.932;4.442;2022-12-10T17:14:33;1.60;99.90
22418;DHT22;11376;50.932;4.442;2022-12-10T17:17:00;1.60;99.90
22418;DHT22;11376;50.932;4.442;2022-12-10T17:19:29;1.70;99.90
22418;DHT22;11376;50.932;4.442;2022-12-10T17:21:55;1.60;99.90
22418;DHT22;11376;50.932;4.442;2022-12-10T17:24:24;1.60;99.90
22418;DHT22;11376;50.932;4.442;2022-12-10T17:26:50;1.60;99.90
22418;DHT22;11376;50.932;4.442;2022-12-10T17:29:30;1.60;99.90
22418;DHT22;11376;50.932;4.442;2022-12-10T17:31:56;1.60;99.90
22418;DHT22;11376;50.932;4.442;2022-12-10T17:34:22;1.60;99.90
22418;DHT22;11376;50.932;4.442;2022-12-10T17:36:50;1.60;99.90
22418;DHT22;11376;50.932;4.442;2022-12-10T17:39:18;1.70;99.90
22418;DHT22;11376;50.932;4.442;2022-12-10T17:41:44;1.70;99.90
22418;DHT22;11376;50.932;4.442;2022-12-10T17:44:10;1.70;99.90
22418;DHT22;11376;50.932;4.442;2022-12-10T17:46:37;1.70;99.90
22418;DHT22;11376;50.932;4.442;2022-12-10T17:49:03;1.70;99.90
22418;DHT22;11376;50.932;4.442;2022-12-10T17:51:29;1.70;99.90
22418;DHT22;11376;50.932;4.442;2022-12-10T17:53:56;1.70;99.90
22418;DHT22;11376;50.932;4.442;2022-12-10T17:56:25;1.80;99.90
22418;DHT22;11376;50.932;4.442;2022-12-10T17:58:53;1.70;99.90
22418;DHT22;11376;50.932;4.442;2022-12-10T18:01:19;1.80;99.90
22418;DHT22;11376;50.932;4.442;2022-12-10T18:03:45;1.80;99.90
22418;DHT22;11376;50.932;4.442;2022-12-10T18:06:26;1.80;99.90
22418;DHT22;11376;50.932;4.442;2022-12-10T18:08:58;1.80;99.90
22418;DHT22;11376;50.932;4.442;2022-12-10T18:11:34;1.80;99.90
22418;DHT22;11376;50.932;4.442;2022-12-10T18:14:00;1.80;99.90
22418;DHT22;11376;50.932;4.442;2022-12-10T18:16:29;1.90;99.90
22418;DHT22;11376;50.932;4.442;2022-12-10T18:18:57;1.90;99.90
22418;DHT22;11376;50.932;4.442;2022-12-10T18:21:23;1.90;99.90